Time;durP1;ratioP1;P1;durP2;ratioP2;P2;SDS_P1;SDS_P2;PMS_P1;PMS_P2;Temp;Humidity;BMP_temperature;BMP_pressure;BME280_temperature;BME280_humidity;BME280_pressure;Samples;Min_cycle;Max_cycle;Signal;HPM_P1;HPM_P2
2021/08/22 00:01:00;;;;;;;4.35;3.52;;;;;;;24.01;48.71;99923.65;1793588;78;21130;-69
2021/08/22 00:03:28;;;;;;;3.87;3.45;;;;;;;23.99;48.78;99924.95;1774742;79;21524;-70
2021/08/22 00:05:55;;;;;;;5.25;3.17;;;;;;;23.98;48.85;99931.47;1814218;78;21078;-69
2021/08/22 00:08:21;;;;;;;3.65;3.35;;;;;;;23.95;48.93;99921.92;1793896;78;21041;-71
2021/08/22 00:10:48;;;;;;;3.50;3.20;;;;;;;23.93;49.04;99934.92;1814330;78;21065;-70
2021/08/22 00:13:14;;;;;;;3.55;3.20;;;;;;;23.91;49.10;99930.28;1776858;79;21086;-70
2021/08/22 00:15:41;;;;;;;3.62;3.30;;;;;;;23.88;49.16;99936.23;1780311;78;21084;-70
2021/08/22 00:18:07;;;;;;;3.67;3.37;;;;;;;23.85;49.20;99938.89;1791410;79;21009;-69
2021/08/22 00:20:34;;;;;;;3.70;3.37;;;;;;;23.83;49.25;99942.39;1772297;79;21038;-68
2021/08/22 00:23:00;;;;;;;3.08;2.87;;;;;;;23.81;49.31;99943.72;1801561;78;21053;-69
2021/08/22 00:25:27;;;;;;;3.25;2.98;;;;;;;23.79;49.27;99944.51;1782804;79;21105;-69
2021/08/22 00:27:53;;;;;;;3.98;3.00;;;;;;;23.77;49.32;99947.98;1784004;78;21046;-70
2021/08/22 00:30:21;;;;;;;3.20;2.90;;;;;;;23.74;49.33;99950.13;1794207;78;21544;-70
2021/08/22 00:32:47;;;;;;;3.40;3.10;;;;;;;23.72;49.34;99949.55;1771280;78;21009;-69
2021/08/22 00:35:14;;;;;;;3.80;3.50;;;;;;;23.70;49.37;99945.43;1779744;77;21025;-67
2021/08/22 00:37:42;;;;;;;4.10;3.70;;;;;;;23.68;49.33;99942.14;1796939;79;21161;-71
2021/08/22 00:40:10;;;;;;;3.37;3.08;;;;;;;23.66;49.32;99946.48;1817413;78;21546;-69
2021/08/22 00:42:39;;;;;;;3.65;3.22;;;;;;;23.65;49.29;99950.26;1809752;78;20993;-69
2021/08/22 00:45:09;;;;;;;3.30;3.10;;;;;;;23.62;49.34;99941.25;1825846;78;21001;-70
2021/08/22 00:47:43;;;;;;;3.35;3.00;;;;;;;23.61;49.36;99943.70;1802946;78;21002;-70
2021/08/22 00:50:14;;;;;;;3.10;2.85;;;;;;;23.60;49.36;99946.11;1813418;77;22192;-69
2021/08/22 00:52:42;;;;;;;3.58;3.05;;;;;;;23.60;49.35;99946.65;1798524;78;21031;-70
2021/08/22 00:55:11;;;;;;;3.58;2.80;;;;;;;23.57;49.35;99946.63;1807124;78;20986;-69
2021/08/22 00:57:37;;;;;;;3.40;3.10;;;;;;;23.55;49.38;99954.19;1825704;78;20994;-69
2021/08/22 01:00:12;;;;;;;3.75;3.00;;;;;;;23.54;49.45;99954.70;1824641;78;21037;-70
2021/08/22 01:02:53;;;;;;;3.08;2.77;;;;;;;23.52;49.39;99956.03;1825846;78;21111;-70
2021/08/22 01:06:09;;;;;;;3.87;2.98;;;;;;;23.51;49.37;99955.76;1825764;78;21076;-69
2021/08/22 01:08:37;;;;;;;3.35;2.80;;;;;;;23.48;49.31;99955.70;1816374;78;21017;-69
2021/08/22 01:11:16;;;;;;;3.62;3.25;;;;;;;23.43;49.33;99963.77;1803857;78;20991;-69
2021/08/22 01:13:52;;;;;;;3.52;3.22;;;;;;;23.42;49.35;99970.79;1813710;78;21003;-69
2021/08/22 01:16:19;;;;;;;4.22;2.95;;;;;;;23.40;49.35;99971.58;1824791;78;21158;-69
2021/08/22 01:18:45;;;;;;;3.37;2.83;;;;;;;;;;1825871;78;20994;-71
2021/08/22 01:21:16;;;;;;;3.17;2.90;;;;;;;23.35;49.53;99970.44;1825725;78;21522;-70
2021/08/22 01:23:54;;;;;;;3.80;2.95;;;;;;;23.34;49.58;99972.84;1803160;78;21013;-70
2021/08/22 01:26:33;;;;;;;3.12;2.92;;;;;;;23.33;49.53;99975.79;1805007;78;21030;-70
2021/08/22 01:28:59;;;;;;;3.25;2.58;;;;;;;23.30;49.53;99978.47;1812919;78;21144;-70
2021/08/22 01:31:32;;;;;;;3.90;2.83;;;;;;;23.28;49.60;99978.44;1825915;78;21561;-70
2021/08/22 01:33:58;;;;;;;5.53;3.00;;;;;;;23.25;49.60;99977.02;1801169;78;21114;-71
2021/08/22 01:36:26;;;;;;;3.22;2.65;;;;;;;23.24;49.62;99977.30;1789634;78;20994;-69
2021/08/22 01:38:54;;;;;;;2.87;2.67;;;;;;;23.22;49.61;99977.53;1801665;78;21036;-69
2021/08/22 01:41:23;;;;;;;3.98;2.75;;;;;;;23.22;49.59;99979.40;1820373;78;21814;-68
2021/08/22 01:43:52;;;;;;;4.00;3.22;;;;;;;23.19;49.60;99982.61;1817342;77;21545;-69
2021/08/22 01:46:22;;;;;;;4.05;3.10;;;;;;;23.17;49.60;99982.86;1801358;78;21057;-70
2021/08/22 01:48:52;;;;;;;3.30;3.00;;;;;;;23.15;49.57;99980.92;1820636;78;21497;-69
2021/08/22 01:51:18;;;;;;;3.90;2.90;;;;;;;23.13;49.57;99979.00;1812284;78;21040;-70
2021/08/22 01:53:45;;;;;;;3.20;2.90;;;;;;;23.10;49.56;99982.19;1820419;78;21142;-69
2021/08/22 01:56:11;;;;;;;3.47;2.77;;;;;;;23.09;49.62;99976.49;1806634;78;21030;-68
2021/08/22 01:58:38;;;;;;;3.00;2.67;;;;;;;23.08;49.65;99976.19;1820436;78;21068;-71
2021/08/22 02:01:06;;;;;;;3.70;3.02;;;;;;;23.05;49.69;99979.41;1797720;77;21487;-68
2021/08/22 02:03:54;;;;;;;3.05;2.75;;;;;;;23.04;49.69;99975.04;1781016;78;21001;-69
2021/08/22 02:06:47;;;;;;;3.40;3.10;;;;;;;23.02;49.76;99979.85;1836431;77;22193;-69
2021/08/22 02:09:11;;;;;;;2.92;2.72;;;;;;;23.00;49.81;99979.28;1819285;78;20998;-70
2021/08/22 02:11:44;;;;;;;3.05;2.75;;;;;;;22.97;49.85;99980.59;1809530;77;21118;-68
2021/08/22 02:14:12;;;;;;;3.40;2.80;;;;;;;22.94;49.86;99983.23;1810185;78;21030;-69
2021/08/22 02:16:48;;;;;;;2.90;2.70;;;;;;;22.93;49.94;99976.73;1820428;78;21517;-70
2021/08/22 02:19:14;;;;;;;3.02;2.72;;;;;;;22.90;50.05;99983.98;1820377;78;21764;-69
2021/08/22 02:21:41;;;;;;;5.20;3.25;;;;;;;22.88;50.12;99986.11;1811555;77;21046;-69
2021/08/22 02:24:08;;;;;;;4.37;3.35;;;;;;;22.85;50.16;99984.72;1819203;78;21107;-69
2021/08/22 02:26:35;;;;;;;3.37;3.08;;;;;;;22.83;50.18;99984.66;1797802;78;21553;-69
2021/08/22 02:29:02;;;;;;;3.42;3.12;;;;;;;22.81;50.24;99985.44;1806743;78;21081;-70
2021/08/22 02:31:29;;;;;;;6.30;3.02;;;;;;;22.78;50.33;99991.63;1820713;78;21751;-68
2021/08/22 02:33:57;;;;;;;3.42;2.95;;;;;;;22.76;50.36;99986.98;1820312;78;21458;-69
2021/08/22 02:36:24;;;;;;;3.62;2.95;;;;;;;22.74;50.33;99989.66;1820419;78;21010;-69
2021/08/22 02:38:51;;;;;;;5.15;3.33;;;;;;;22.71;50.35;99984.17;1820815;77;21018;-69
2021/08/22 02:41:19;;;;;;;2.90;2.60;;;;;;;22.70;50.36;99990.67;1811939;78;20962;-71
2021/08/22 02:43:47;;;;;;;3.25;2.95;;;;;;;22.67;50.39;99995.75;1825754;78;21069;-69
2021/08/22 02:46:14;;;;;;;3.40;3.10;;;;;;;22.65;50.38;99993.27;1825995;78;21543;-70
2021/08/22 02:48:41;;;;;;;3.55;2.95;;;;;;;22.63;50.40;99989.17;1803911;78;21488;-69
2021/08/22 02:51:07;;;;;;;2.85;2.62;;;;;;;22.62;50.41;99992.93;1825798;78;21002;-69
2021/08/22 02:53:35;;;;;;;3.22;2.92;;;;;;;22.60;50.41;99992.34;1826027;78;21555;-69
2021/08/22 02:56:01;;;;;;;3.83;3.50;;;;;;;22.57;50.43;99997.73;1819456;78;21097;-69
2021/08/22 02:58:28;;;;;;;3.40;2.80;;;;;;;22.55;50.47;99994.44;1808654;78;20989;-69
2021/08/22 03:00:54;;;;;;;3.27;2.98;;;;;;;22.53;50.51;100000.09;1822181;78;21029;-70
2021/08/22 03:03:22;;;;;;;2.92;2.70;;;;;;;22.51;50.55;100003.56;1806997;78;21463;-70
2021/08/22 03:05:50;;;;;;;4.47;2.98;;;;;;;22.49;50.62;100002.98;1825940;78;21001;-70
2021/08/22 03:08:17;;;;;;;3.80;3.10;;;;;;;22.46;50.64;100004.81;1814490;78;21125;-69
2021/08/22 03:10:47;;;;;;;3.10;2.80;;;;;;;22.45;50.70;100005.08;1814722;78;21030;-70
2021/08/22 03:13:14;;;;;;;3.47;3.12;;;;;;;22.43;50.72;100008.02;1825971;78;21041;-68
2021/08/22 03:15:41;;;;;;;3.30;3.00;;;;;;;22.42;50.71;100006.89;1825024;78;21033;-70
2021/08/22 03:18:09;;;;;;;3.75;3.02;;;;;;;22.40;50.63;100007.13;1819255;78;21003;-70
2021/08/22 03:20:36;;;;;;;3.58;3.20;;;;;;;22.39;50.67;100010.91;1810513;78;21084;-69
2021/08/22 03:23:03;;;;;;;4.97;3.47;;;;;;;22.36;50.74;100010.03;1825801;78;20990;-70
2021/08/22 03:25:31;;;;;;;3.17;2.87;;;;;;;22.36;50.84;100012.73;1826247;78;20990;-68
2021/08/22 03:27:58;;;;;;;5.65;5.10;;;;;;;22.34;50.86;100017.56;1824315;78;21041;-70
2021/08/22 03:30:26;;;;;;;3.58;2.85;;;;;;;22.33;50.89;100018.64;1805229;78;21025;-70
2021/08/22 03:32:56;;;;;;;3.50;3.17;;;;;;;22.31;50.94;100021.58;1824596;78;21169;-69
2021/08/22 03:35:22;;;;;;;7.53;2.85;;;;;;;22.29;50.99;100017.45;1826113;78;22108;-69
2021/08/22 03:37:49;;;;;;;3.30;2.83;;;;;;;22.29;51.02;100020.16;1825737;78;21006;-69
2021/08/22 03:40:18;;;;;;;3.15;2.85;;;;;;;22.28;51.06;100025.29;1819643;78;21494;-70
2021/08/22 03:42:44;;;;;;;3.05;2.77;;;;;;;22.25;51.07;100018.98;1814336;79;21073;-69
2021/08/22 03:45:11;;;;;;;3.45;2.83;;;;;;;22.24;51.09;100027.61;1786780;78;21096;-69
2021/08/22 03:47:37;;;;;;;4.58;2.80;;;;;;;22.22;51.17;100024.86;1812042;79;21487;-70
2021/08/22 03:50:06;;;;;;;3.15;2.85;;;;;;;22.22;51.19;100026.22;1797327;79;21006;-69
2021/08/22 03:52:33;;;;;;;3.37;2.72;;;;;;;22.21;51.22;100028.61;1810395;78;21066;-71
2021/08/22 03:54:59;;;;;;;3.42;3.12;;;;;;;22.19;51.26;100028.84;1821903;78;21070;-69
2021/08/22 03:57:26;;;;;;;4.97;3.25;;;;;;;22.17;51.33;100026.41;1814987;78;21083;-68
2021/08/22 03:59:52;;;;;;;5.20;3.37;;;;;;;22.17;51.30;100026.41;1814190;79;21057;-69
2021/08/22 04:02:21;;;;;;;3.65;3.05;;;;;;;22.18;51.30;100031.28;1814291;78;21026;-70
2021/08/22 04:04:55;;;;;;;3.02;2.72;;;;;;;22.17;51.31;100029.61;1813723;78;21056;-69
2021/08/22 04:07:21;;;;;;;4.08;3.15;;;;;;;22.16;51.42;100028.80;1794140;78;21046;-70
2021/08/22 04:09:47;;;;;;;5.60;3.02;;;;;;;22.17;51.44;100026.41;1813350;79;21180;-71
2021/08/22 04:12:14;;;;;;;4.00;2.72;;;;;;;22.18;51.36;100032.63;1789429;79;20981;-70
2021/08/22 04:14:40;;;;;;;5.15;3.35;;;;;;;22.19;51.47;100033.75;1770977;79;21013;-69
2021/08/22 04:17:06;;;;;;;4.65;2.83;;;;;;;22.19;51.45;100029.69;1792191;79;21560;-69
2021/08/22 04:19:36;;;;;;;3.50;3.20;;;;;;;22.21;51.35;100039.44;1814232;78;21013;-69
2021/08/22 04:22:04;;;;;;;6.42;3.12;;;;;;;22.21;51.28;100041.61;1796424;79;21088;-69
2021/08/22 04:24:30;;;;;;;3.30;2.95;;;;;;;22.22;51.24;100043.27;1779806;79;21567;-70
2021/08/22 04:26:57;;;;;;;3.40;2.80;;;;;;;22.23;51.23;100040.02;1785078;79;21097;-70
2021/08/22 04:29:23;;;;;;;4.62;3.15;;;;;;;22.22;51.23;100037.85;1786660;79;22198;-70
2021/08/22 04:31:51;;;;;;;3.50;3.15;;;;;;;22.23;51.21;100042.19;1801470;79;21068;-70
2021/08/22 04:34:18;;;;;;;4.03;2.95;;;;;;;22.24;51.16;100044.39;1795032;79;21788;-70
2021/08/22 04:36:44;;;;;;;4.83;3.10;;;;;;;22.24;51.16;100044.39;1814086;79;21084;-70
2021/08/22 04:39:11;;;;;;;3.35;3.05;;;;;;;22.24;51.17;100049.80;1814357;79;21025;-70
2021/08/22 04:41:39;;;;;;;3.40;3.10;;;;;;;22.24;51.22;100052.51;1812974;78;21073;-70
2021/08/22 04:44:05;;;;;;;4.75;3.05;;;;;;;22.25;51.32;100055.01;1805918;79;21112;-69
2021/08/22 04:46:32;;;;;;;3.58;3.27;;;;;;;22.25;51.38;100059.07;1792769;79;21122;-69
2021/08/22 04:49:01;;;;;;;3.35;3.05;;;;;;;22.26;51.43;100055.83;1801318;79;21072;-69
2021/08/22 04:51:27;;;;;;;3.20;2.90;;;;;;;22.27;51.46;100061.52;1790116;79;20995;-69
2021/08/22 04:53:54;;;;;;;5.12;3.02;;;;;;;22.26;51.39;100062.05;1814262;77;21495;-69
2021/08/22 04:56:20;;;;;;;3.45;3.15;;;;;;;22.28;51.34;100052.34;1814502;78;21616;-70
2021/08/22 04:58:46;;;;;;;3.72;3.12;;;;;;;22.29;51.36;100059.39;1813014;79;21121;-69
2021/08/22 05:01:13;;;;;;;3.42;3.08;;;;;;;22.30;51.31;100057.81;1814735;78;21077;-70
2021/08/22 05:03:41;;;;;;;3.70;2.98;;;;;;;22.32;51.30;100069.22;1814393;78;20998;-69
2021/08/22 05:06:09;;;;;;;4.72;2.87;;;;;;;22.33;51.24;100070.06;1807055;79;21548;-69
2021/08/22 05:08:36;;;;;;;9.40;4.10;;;;;;;22.36;51.19;100064.16;1791839;79;21502;-71
2021/08/22 05:11:05;;;;;;;5.00;3.08;;;;;;;22.38;51.15;100067.44;1814505;79;21640;-71
2021/08/22 05:13:37;;;;;;;3.98;3.02;;;;;;;22.40;51.22;100066.67;1814554;79;20982;-71
2021/08/22 05:16:05;;;;;;;3.67;2.58;;;;;;;22.42;51.18;100069.96;1813389;78;21707;-69
2021/08/22 05:18:33;;;;;;;2.83;2.62;;;;;;;22.43;51.22;100070.27;1814364;79;20986;-72
2021/08/22 05:21:02;;;;;;;3.15;2.80;;;;;;;22.45;51.34;100066.80;1784047;79;21525;-72
2021/08/22 05:23:28;;;;;;;4.75;2.95;;;;;;;22.47;51.32;100071.97;1797417;78;21941;-70
2021/08/22 05:25:55;;;;;;;3.85;2.83;;;;;;;22.49;51.29;100072.02;1797294;79;21007;-69
2021/08/22 05:28:21;;;;;;;3.47;3.17;;;;;;;22.51;51.12;100069.89;1783924;79;21062;-72
2021/08/22 05:30:47;;;;;;;4.22;3.30;;;;;;;22.53;51.13;100067.77;1792629;78;20998;-70
2021/08/22 05:33:14;;;;;;;4.50;3.47;;;;;;;22.55;51.12;100071.05;1809081;79;21521;-70
2021/08/22 05:35:40;;;;;;;4.17;3.62;;;;;;;22.57;51.06;100066.22;1789353;79;21683;-69
2021/08/22 05:38:07;;;;;;;4.95;3.77;;;;;;;22.61;51.04;100067.11;1814333;78;21025;-69
2021/08/22 05:40:35;;;;;;;5.05;3.75;;;;;;;22.62;51.07;100068.23;1819076;77;21048;-70
2021/08/22 05:43:01;;;;;;;6.40;3.60;;;;;;;22.65;51.13;100062.86;1825897;78;21001;-70
2021/08/22 05:45:28;;;;;;;4.33;3.45;;;;;;;22.67;51.15;100075.08;1820486;78;21039;-70
2021/08/22 05:47:56;;;;;;;4.25;3.40;;;;;;;22.71;51.14;100065.95;1819468;78;21013;-68
2021/08/22 05:50:23;;;;;;;3.95;3.10;;;;;;;22.71;51.13;100065.41;1826199;78;21501;-69
2021/08/22 05:52:49;;;;;;;4.08;2.80;;;;;;;22.76;50.96;100069.59;1825888;78;20990;-70
2021/08/22 05:55:16;;;;;;;3.42;2.47;;;;;;;22.80;50.56;100069.94;1825849;78;21069;-68
2021/08/22 05:57:43;;;;;;;3.35;2.58;;;;;;;22.83;50.11;100070.82;1819777;78;20999;-70
2021/08/22 06:00:11;;;;;;;3.15;2.70;;;;;;;22.85;49.83;100072.75;1810101;78;21112;-69
2021/08/22 06:02:40;;;;;;;2.77;2.37;;;;;;;22.88;49.66;100079.03;1821418;78;20990;-70
2021/08/22 06:05:08;;;;;;;3.02;2.47;;;;;;;22.92;49.50;100078.02;1806661;78;21052;-69
2021/08/22 06:07:34;;;;;;;4.85;2.45;;;;;;;22.94;49.35;100079.41;1803209;78;21079;-68
2021/08/22 06:10:01;;;;;;;3.45;2.33;;;;;;;22.97;49.10;100078.94;1826069;78;21026;-69
2021/08/22 06:12:27;;;;;;;2.85;2.20;;;;;;;23.01;49.00;100077.11;1825929;78;21097;-70
2021/08/22 06:14:55;;;;;;;5.62;2.52;;;;;;;23.03;48.89;100068.23;1816987;78;21090;-70
2021/08/22 06:17:21;;;;;;;2.67;2.47;;;;;;;23.06;48.84;100081.28;1793608;78;21063;-70
2021/08/22 06:19:47;;;;;;;3.20;2.42;;;;;;;23.09;48.77;100078.92;1822279;78;21052;-69
2021/08/22 06:22:14;;;;;;;4.22;2.85;;;;;;;23.12;48.56;100078.95;1819823;78;21053;-70
2021/08/22 06:24:41;;;;;;;4.62;2.60;;;;;;;23.16;48.38;100072.02;1819443;78;21201;-70
2021/08/22 06:27:07;;;;;;;3.12;2.47;;;;;;;23.18;48.25;100075.30;1825686;78;21076;-69
2021/08/22 06:29:35;;;;;;;4.22;2.58;;;;;;;23.21;48.15;100074.80;1825098;78;21053;-69
2021/08/22 06:32:04;;;;;;;3.00;2.45;;;;;;;23.24;48.08;100079.73;1803992;78;21009;-69
2021/08/22 06:34:30;;;;;;;2.80;2.22;;;;;;;23.27;48.04;100080.59;1826219;78;21032;-69
2021/08/22 06:36:58;;;;;;;6.28;2.65;;;;;;;23.30;47.79;100076.59;1825810;78;21199;-70
2021/08/22 06:39:24;;;;;;;2.70;2.30;;;;;;;23.31;47.56;100077.70;1824685;78;21525;-70
2021/08/22 06:41:51;;;;;;;5.08;2.15;;;;;;;23.34;47.27;100079.91;1816123;78;21564;-69
2021/08/22 06:44:17;;;;;;;2.95;2.52;;;;;;;23.38;47.19;100083.50;1789663;78;21001;-72
2021/08/22 06:46:45;;;;;;;2.55;2.33;;;;;;;23.41;47.12;100087.06;1796135;79;21021;-69
2021/08/22 06:49:12;;;;;;;4.42;2.47;;;;;;;23.42;47.15;100089.53;1813896;79;21144;-69
2021/08/22 06:51:40;;;;;;;5.97;2.60;;;;;;;23.46;47.19;100092.04;1814183;79;21038;-70
2021/08/22 06:54:06;;;;;;;3.70;2.35;;;;;;;23.49;47.13;100093.45;1814513;77;21014;-70
2021/08/22 06:56:32;;;;;;;2.65;2.05;;;;;;;23.51;47.13;100085.90;1809942;78;20998;-70
2021/08/22 06:59:00;;;;;;;2.95;2.25;;;;;;;23.53;47.06;100091.36;1814139;79;21077;-69
2021/08/22 07:01:27;;;;;;;3.02;2.30;;;;;;;23.57;46.74;100091.69;1814331;79;21766;-69
2021/08/22 07:03:53;;;;;;;3.40;2.20;;;;;;;23.59;46.42;100088.20;1814465;79;21061;-70
2021/08/22 07:06:19;;;;;;;5.03;1.92;;;;;;;23.60;46.27;100088.47;1814274;78;21014;-69
2021/08/22 07:08:46;;;;;;;3.60;2.25;;;;;;;23.64;46.17;100091.01;1790768;79;21005;-70
2021/08/22 07:11:12;;;;;;;3.72;2.15;;;;;;;23.67;46.14;100090.50;1808147;79;21080;-69
2021/08/22 07:13:39;;;;;;;2.27;2.08;;;;;;;23.69;45.93;100088.36;1809758;78;22391;-69
2021/08/22 07:16:07;;;;;;;4.72;2.52;;;;;;;23.74;45.78;100090.35;1780555;78;21099;-70
2021/08/22 07:18:33;;;;;;;2.98;1.90;;;;;;;23.77;45.56;100088.48;1787202;79;21038;-70
2021/08/22 07:20:59;;;;;;;3.02;2.15;;;;;;;23.79;45.54;100090.44;1814155;78;21498;-70
2021/08/22 07:23:27;;;;;;;2.85;2.22;;;;;;;23.83;45.35;100089.42;1814094;79;21105;-70
2021/08/22 07:25:53;;;;;;;2.52;2.17;;;;;;;23.87;45.30;100088.66;1814451;78;21107;-70
2021/08/22 07:28:20;;;;;;;2.60;2.00;;;;;;;23.90;45.31;100092.25;1814364;79;20983;-70
2021/08/22 07:30:46;;;;;;;2.22;2.00;;;;;;;23.93;45.19;100093.64;1813358;78;21005;-69
2021/08/22 07:33:12;;;;;;;2.25;1.70;;;;;;;23.97;44.98;100086.67;1814209;79;21520;-72
2021/08/22 07:35:39;;;;;;;2.20;1.70;;;;;;;23.99;44.77;100087.76;1796847;78;21033;-70
2021/08/22 07:38:05;;;;;;;2.75;1.65;;;;;;;24.03;44.62;100091.10;1801341;79;21068;-70
2021/08/22 07:40:31;;;;;;;2.42;1.80;;;;;;;24.06;44.59;100093.30;1786287;78;21018;-71
2021/08/22 07:42:58;;;;;;;2.20;1.85;;;;;;;24.10;44.43;100097.16;1825829;78;21553;-70
2021/08/22 07:45:25;;;;;;;2.90;2.02;;;;;;;24.13;44.36;100100.73;1802988;78;21595;-69
2021/08/22 07:47:51;;;;;;;2.17;1.70;;;;;;;24.17;44.26;100101.06;1824696;78;21045;-70
2021/08/22 07:50:18;;;;;;;3.67;1.80;;;;;;;24.20;44.30;100104.63;1825875;78;21139;-70
2021/08/22 07:52:44;;;;;;;3.47;2.17;;;;;;;24.23;44.29;100097.89;1802789;78;21017;-71
2021/08/22 07:55:11;;;;;;;3.60;2.00;;;;;;;24.26;44.17;100106.36;1825781;78;21072;-70
2021/08/22 07:57:38;;;;;;;3.25;1.72;;;;;;;24.29;44.16;100102.31;1826055;78;21462;-70
2021/08/22 08:00:06;;;;;;;2.58;1.80;;;;;;;24.33;43.93;100107.53;1810628;78;21059;-68
2021/08/22 08:02:34;;;;;;;3.27;2.08;;;;;;;24.34;43.82;100101.86;1818624;78;21095;-71
2021/08/22 08:05:00;;;;;;;2.90;2.33;;;;;;;24.37;43.91;100097.81;1824497;78;21496;-70
2021/08/22 08:07:27;;;;;;;3.47;1.62;;;;;;;24.42;44.06;100099.79;1825836;78;21516;-70
2021/08/22 08:09:55;;;;;;;3.98;2.02;;;;;;;24.45;43.89;100099.27;1825690;78;21545;-70
2021/08/22 08:12:21;;;;;;;2.47;2.27;;;;;;;24.48;43.75;100098.23;1825882;78;21064;-70
2021/08/22 08:14:48;;;;;;;4.72;1.80;;;;;;;24.50;43.90;100093.38;1826057;78;21560;-69
2021/08/22 08:17:14;;;;;;;2.70;2.15;;;;;;;24.53;43.70;100088.84;1826064;78;21542;-69
2021/08/22 08:19:41;;;;;;;3.27;1.87;;;;;;;24.58;43.48;100095.41;1802951;78;21151;-71
2021/08/22 08:22:09;;;;;;;3.58;2.05;;;;;;;24.59;43.41;100087.02;1824509;78;20955;-70
2021/08/22 08:24:36;;;;;;;3.02;2.15;;;;;;;24.63;43.23;100091.41;1807240;78;21041;-71
2021/08/22 08:27:04;;;;;;;1.92;1.82;;;;;;;24.66;43.46;100084.09;1824025;77;21793;-70
2021/08/22 08:29:30;;;;;;;2.15;1.95;;;;;;;24.69;43.16;100082.23;1822119;78;21390;-68
2021/08/22 08:31:56;;;;;;;3.80;2.20;;;;;;;24.72;43.17;100086.63;1817716;78;21064;-70
2021/08/22 08:34:23;;;;;;;2.33;1.70;;;;;;;24.76;43.08;100082.03;1821204;77;21051;-69
2021/08/22 08:36:49;;;;;;;2.70;2.20;;;;;;;24.79;42.98;100085.07;1810902;77;21021;-69
2021/08/22 08:39:15;;;;;;;3.42;1.85;;;;;;;24.83;43.21;100086.74;1822747;78;21048;-71
2021/08/22 08:41:42;;;;;;;2.22;1.85;;;;;;;24.87;42.59;100083.25;1811642;77;21048;-70
2021/08/22 08:44:12;;;;;;;2.30;2.10;;;;;;;24.90;42.64;100084.11;1801953;78;21040;-69
2021/08/22 08:46:55;;;;;;;2.47;1.90;;;;;;;24.95;41.86;100085.24;1807325;79;20978;-70
2021/08/22 08:49:27;;;;;;;3.87;2.00;;;;;;;24.99;41.62;100086.38;1813811;79;20994;-70
2021/08/22 08:52:31;;;;;;;2.72;2.15;;;;;;;25.01;41.55;100079.59;1814608;79;21085;-70
2021/08/22 08:57:01;;;;;;;2.35;2.08;;;;;;;25.15;41.92;100081.91;1869174;75;22535;-69
2021/08/22 08:59:28;;;;;;;2.30;1.90;;;;;;;25.12;41.06;100083.25;1826237;78;20993;-70
2021/08/22 09:01:58;;;;;;;5.35;2.20;;;;;;;25.20;41.11;100080.06;1803231;78;21125;-70
2021/08/22 09:04:32;;;;;;;2.10;1.70;;;;;;;25.24;40.43;100073.06;1820061;78;20910;-70
2021/08/22 09:07:28;;;;;;;2.95;2.17;;;;;;;25.29;40.63;100075.84;1826177;78;21022;-70
2021/08/22 09:10:45;;;;;;;2.20;1.85;;;;;;;25.35;40.35;100084.06;1826206;78;21029;-72
2021/08/22 09:13:50;;;;;;;2.30;2.10;;;;;;;25.39;39.78;100090.07;1825069;78;21481;-71
2021/08/22 09:16:59;;;;;;;1.98;1.82;;;;;;;25.44;39.99;100082.48;1789587;78;21099;-69
2021/08/22 09:20:16;;;;;;;2.80;1.85;;;;;;;25.47;40.24;100083.34;1813767;78;20969;-69
2021/08/22 09:23:39;;;;;;;3.40;2.08;;;;;;;25.51;40.22;100074.94;1816214;78;21004;-71
2021/08/22 09:26:57;;;;;;;2.15;1.95;;;;;;;25.56;39.83;100078.27;1826238;78;20978;-69
2021/08/22 09:30:07;;;;;;;3.08;2.10;;;;;;;25.60;40.45;100076.66;1825743;78;20998;-69
2021/08/22 09:33:02;;;;;;;2.30;2.10;;;;;;;25.63;40.15;100070.69;1801048;79;22365;-71
2021/08/22 09:36:07;;;;;;;2.83;2.15;;;;;;;25.65;39.94;100073.45;1799756;78;21505;-70
2021/08/22 09:39:16;;;;;;;2.10;1.90;;;;;;;25.69;40.18;100075.92;1793401;78;21006;-68
2021/08/22 09:42:38;;;;;;;3.42;2.15;;;;;;;25.73;40.15;100072.66;1795525;78;21083;-70
2021/08/22 09:45:56;;;;;;;2.27;2.08;;;;;;;25.77;40.15;100065.61;1826344;78;21037;-71
2021/08/22 09:49:18;;;;;;;4.92;2.20;;;;;;;25.80;39.92;100072.72;1826411;78;21088;-70
2021/08/22 09:52:26;;;;;;;3.90;2.20;;;;;;;25.86;40.05;100066.78;1766477;80;21091;-70
2021/08/22 09:55:22;;;;;;;2.20;1.87;;;;;;;25.92;40.13;100075.28;1807884;77;21025;-69
2021/08/22 09:58:32;;;;;;;3.45;2.37;;;;;;;25.99;40.12;100066.91;1759182;80;21087;-70
2021/08/22 10:01:45;;;;;;;2.77;2.00;;;;;;;26.06;39.67;100066.14;1826522;78;21041;-71
2021/08/22 10:04:47;;;;;;;2.30;2.10;;;;;;;26.16;39.14;100061.30;1825327;78;21854;-70
2021/08/22 10:07:35;;;;;;;3.17;1.67;;;;;;;26.23;38.98;100064.06;1826173;78;20998;-70
2021/08/22 10:10:28;;;;;;;2.12;1.92;;;;;;;26.30;39.09;100061.09;1825889;78;21064;-70
2021/08/22 10:12:54;;;;;;;1.90;1.80;;;;;;;26.39;39.17;100072.31;1825958;78;21045;-70
2021/08/22 10:15:22;;;;;;;2.62;2.10;;;;;;;26.45;38.92;100064.44;1826076;78;21548;-71
2021/08/22 10:17:49;;;;;;;2.65;2.00;;;;;;;26.50;38.35;100068.52;1823590;78;21200;-69
2021/08/22 10:20:17;;;;;;;4.30;2.10;;;;;;;26.56;38.26;100065.28;1804325;78;21021;-71
2021/08/22 10:22:44;;;;;;;3.33;1.75;;;;;;;26.61;38.29;100066.16;1825860;78;21072;-69
2021/08/22 10:25:13;;;;;;;3.05;1.92;;;;;;;26.65;38.40;100067.80;1825955;78;21108;-69
2021/08/22 10:27:50;;;;;;;3.60;2.37;;;;;;;26.67;38.11;100067.80;1825871;78;21111;-70
2021/08/22 10:30:24;;;;;;;2.80;2.27;;;;;;;26.71;37.80;100072.18;1803139;78;22356;-69
2021/08/22 10:33:06;;;;;;;2.95;2.12;;;;;;;26.74;38.06;100073.02;1825791;78;21545;-71
2021/08/22 10:35:34;;;;;;;2.92;2.33;;;;;;;26.76;38.13;100070.03;1825996;78;21502;-70
2021/08/22 10:38:26;;;;;;;4.10;2.33;;;;;;;26.78;38.57;100071.40;1819858;78;21092;-70
2021/08/22 10:40:54;;;;;;;3.95;2.40;;;;;;;26.81;38.44;100075.48;1808821;78;21048;-69
2021/08/22 10:43:31;;;;;;;2.33;1.90;;;;;;;26.84;39.00;100075.77;1825899;78;21102;-69
2021/08/22 10:45:56;;;;;;;4.40;2.72;;;;;;;26.87;38.78;100077.97;1825640;78;21092;-70
2021/08/22 10:48:29;;;;;;;3.58;1.90;;;;;;;26.92;38.72;100068.17;1807942;78;21049;-70
2021/08/22 10:51:07;;;;;;;2.30;2.10;;;;;;;26.98;37.94;100070.63;1816300;78;21059;-69
2021/08/22 10:53:36;;;;;;;2.45;1.80;;;;;;;27.06;37.74;100071.48;1812446;78;21057;-71
2021/08/22 10:56:29;;;;;;;2.95;1.90;;;;;;;27.15;37.30;100067.66;1824375;78;23138;-69
2021/08/22 10:59:06;;;;;;;2.87;2.10;;;;;;;27.24;36.87;100067.44;1825903;78;21545;-70
2021/08/22 11:01:32;;;;;;;2.42;1.90;;;;;;;27.35;36.58;100069.65;1825614;78;21048;-71
2021/08/22 11:04:08;;;;;;;3.17;1.98;;;;;;;27.44;36.21;100076.73;1825171;78;21038;-70
2021/08/22 11:06:37;;;;;;;2.42;2.10;;;;;;;27.53;36.30;100067.47;1826294;78;20997;-70
2021/08/22 11:09:06;;;;;;;2.85;2.25;;;;;;;27.60;36.41;100065.27;1825777;78;21473;-70
2021/08/22 11:11:34;;;;;;;3.15;1.90;;;;;;;27.66;36.22;100064.16;1824595;78;21045;-70
2021/08/22 11:14:02;;;;;;;2.62;2.20;;;;;;;27.71;36.17;100062.81;1825751;78;21119;-70
2021/08/22 11:16:46;;;;;;;2.12;1.92;;;;;;;27.75;35.52;100067.98;1818621;78;21051;-70
2021/08/22 11:19:12;;;;;;;3.40;2.10;;;;;;;27.77;34.83;100061.70;1814199;78;21501;-68
2021/08/22 11:21:39;;;;;;;2.75;2.10;;;;;;;27.79;35.24;100058.70;1803214;78;21214;-71
2021/08/22 11:24:06;;;;;;;2.45;1.80;;;;;;;27.81;34.89;100063.34;1825904;78;21017;-69
2021/08/22 11:26:33;;;;;;;2.25;2.05;;;;;;;27.83;34.89;100065.25;1826064;78;21096;-70
2021/08/22 11:29:01;;;;;;;5.62;2.20;;;;;;;27.83;34.67;100058.42;1824528;78;21037;-70
2021/08/22 11:31:30;;;;;;;2.08;1.87;;;;;;;27.83;34.91;100058.42;1822628;78;21061;-71
2021/08/22 11:33:57;;;;;;;2.12;2.00;;;;;;;27.82;34.99;100058.17;1807061;78;21792;-70
2021/08/22 11:36:27;;;;;;;2.92;2.45;;;;;;;27.82;35.28;100056.80;1825725;78;21006;-72
2021/08/22 11:39:13;;;;;;;2.50;2.00;;;;;;;27.81;35.46;100061.42;1825679;78;21512;-71
2021/08/22 11:41:43;;;;;;;2.15;2.00;;;;;;;27.80;35.69;100063.09;1826030;78;21010;-71
2021/08/22 11:44:09;;;;;;;2.12;1.85;;;;;;;27.77;35.62;100058.98;1822359;78;21047;-71
2021/08/22 11:46:36;;;;;;;3.67;2.22;;;;;;;27.76;35.38;100059.27;1819002;78;21063;-70
2021/08/22 11:49:02;;;;;;;3.40;1.98;;;;;;;27.74;35.31;100060.06;1825813;78;21002;-69